ADDS METAR Data INFO
IDs: Format: Raw Decoded Include TAF

Data at: 2204 UTC 24 Feb 2018

KRCV 242150Z AUTO 22016G23KT 10SM CLR M01/M17 A2981 RMK AO2 T10061175
KRCV 242130Z AUTO 24016G19KT 10SM CLR 00/M19 A2981 RMK AO2 T10011187
KRCV 242110Z AUTO 24016G21KT 10SM CLR 00/M19 A2982 RMK AO2 T00001188
KRCV 242050Z AUTO 25017G21KT 10SM CLR 00/M19 A2982 RMK AO2 T10051186
KRCV 242030Z AUTO 27011G18KT 10SM CLR M01/M19 A2983 RMK AO2 T10111189
KRCV 242010Z AUTO 26014G20KT 10SM CLR M01/M18 A2984 RMK AO2 T10131185
KRCV 241950Z AUTO 25012G22KT 10SM CLR M02/M19 A2986 RMK AO2 T10171191
KRCV 241930Z AUTO 25014G20KT 10SM CLR M02/M21 A2986 RMK AO2 T10181209
KRCV 241910Z AUTO 26016KT 10SM CLR M02/M20 A2987 RMK AO2 T10241205
KRCV 241850Z AUTO 24014G20KT 10SM CLR M03/M20 A2987 RMK AO2 T10281205
KRCV 241830Z AUTO 25017G21KT 10SM CLR M03/M21 A2987 RMK AO2 T10311206
KRCV 241810Z AUTO 25018G23KT 10SM CLR M04/M21 A2987 RMK AO2 T10401206
KRCV 241750Z AUTO 27014G23KT 10SM CLR M04/M21 A2988 RMK AO2 T10421208 11042 21111
KRCV 241730Z AUTO 26013G21KT 10SM CLR M05/M21 A2988 RMK AO2 T10471208
KRCV 241710Z AUTO 26016G23KT 10SM CLR M05/M21 A2988 RMK AO2 T10541214
KRCV 241650Z AUTO 26016G24KT 10SM CLR M06/M21 A2988 RMK AO2 T10571212
KRCV 241630Z AUTO 26016G20KT 10SM CLR M06/M21 A2988 RMK AO2 T10601206
KRCV 241610Z AUTO 25013G20KT 10SM CLR M07/M21 A2988 RMK AO2 T10681214
KRCV 241550Z AUTO 26014KT 10SM CLR M07/M21 A2988 RMK AO2 T10701211
KRCV 241530Z AUTO 26013G16KT 10SM CLR M08/M20 A2988 RMK AO2 T10781200
KRCV 241510Z AUTO 26010KT 10SM CLR M09/M19 A2987 RMK AO2 T10861186
KRCV 241450Z AUTO 26012KT 10SM CLR M10/M18 A2985 RMK AO2 T10961181
KRCV 241430Z AUTO 27013KT 10SM CLR M10/M18 A2985 RMK AO2 T11001185
KRCV 241410Z AUTO 28011G16KT 10SM CLR M11/M19 A2984 RMK AO2 T11071186
KRCV 241350Z AUTO 26009KT 10SM CLR M11/M19 A2984 RMK AO2 T11081192
KRCV 241330Z AUTO 27011KT 10SM CLR M11/M19 A2984 RMK AO2 T11101195
KRCV 241310Z AUTO 27011KT 10SM CLR M11/M18 A2982 RMK AO2 T11071178
KRCV 241250Z AUTO 27011KT 10SM CLR M09/M17 A2982 RMK AO2 T10951166
KRCV 241230Z AUTO 25013KT 10SM CLR M10/M16 A2981 RMK AO2 T10971159
KRCV 241210Z AUTO 24010KT 10SM CLR M10/M14 A2981 RMK AO2 T11011145
KRCV 241150Z AUTO 24009KT 10SM SCT049 SCT055 SCT065 M10/M13 A2980 RMK AO2 T10991134 11055 21099
KRCV 241130Z AUTO 24008KT 10SM SCT009 BKN039 OVC050 M09/M14 A2980 RMK AO2 T10861139
KRCV 241110Z AUTO 29007KT 1 3/4SM -SN BKN008 OVC012 M09/M12 A2981 RMK AO2 T10881121
KRCV 241050Z AUTO 31012KT 1 3/4SM -SN BKN012 BKN022 OVC039 M09/M12 A2980 RMK AO2 T10861117
KRCV 241030Z AUTO 29008KT 10SM SCT034 SCT042 OVC050 M07/M12 A2980 RMK AO2 T10751117
KRCV 241010Z AUTO 25005KT 10SM SCT060 BKN070 BKN080 M08/M11 A2979 RMK AO2 T10801115
KRCV 240950Z AUTO 25003KT 10SM SCT060 BKN090 M08/M11 A2979 RMK AO2 T10831113
KRCV 240930Z AUTO 23003KT 10SM SCT060 SCT075 BKN090 M09/M11 A2979 RMK AO2 T10901110
KRCV 240910Z AUTO 30004KT 10SM SCT080 BKN100 M08/M11 A2979 RMK AO2 T10851115
KRCV 240850Z AUTO 23005KT 10SM BKN100 M08/M11 A2980 RMK AO2 T10781114
KRCV 240830Z AUTO 24006KT 10SM BKN100 M07/M11 A2980 RMK AO2 T10731111
KRCV 240810Z AUTO 22005KT 10SM SCT100 M07/M10 A2981 RMK AO2 T10701101
KRCV 240750Z AUTO 21005KT 7SM -SN SCT017 BKN030 OVC110 M06/M08 A2981 RMK AO2 T10651085
KRCV 240730Z AUTO 23006KT 4SM -SN SCT021 BKN030 OVC050 M06/M08 A2982 RMK AO2 T10601082
KRCV 240710Z AUTO 27005KT 10SM BKN060 OVC070 M06/M08 A2982 RMK AO2 T10641085
KRCV 240650Z AUTO 24005KT 10SM SCT019 SCT029 OVC060 M06/M09 A2982 RMK AO2 T10621090 400211150
KRCV 240630Z AUTO 25005KT 5SM -SN SCT022 BKN029 OVC036 M06/M08 A2983 RMK AO2 T10571082
KRCV 240610Z AUTO 27006KT 3SM -SN SCT012 BKN021 OVC046 M06/M08 A2984 RMK AO2 T10571077
KRCV 240550Z AUTO 26010KT 3SM -SN BKN021 OVC029 M05/M08 A2985 RMK AO2 T10521080 11008 21065
KRCV 240530Z AUTO 27010KT 10SM -SN SCT028 BKN035 OVC050 M04/M09 A2984 RMK AO2 T10431095
KRCV 240510Z AUTO 24011G18KT 10SM SCT037 BKN048 OVC070 M04/M11 A2984 RMK AO2 T10401106
KRCV 240450Z AUTO 26004KT 10SM SCT048 BKN060 OVC075 M06/M11 A2983 RMK AO2 T10561110
KRCV 240430Z AUTO 25003KT 10SM BKN070 OVC085 M04/M11 A2983 RMK AO2 T10431114
KRCV 240410Z AUTO 23008KT 10SM SCT040 BKN060 OVC095 M04/M11 A2984 RMK AO2 T10431115
KRCV 240345Z AUTO 26007KT 10SM SCT060 SCT075 SCT110 M06/M12 A2983 RMK AO2 T10591117
KRCV 240325Z AUTO 27007KT 10SM CLR M06/M12 A2983 RMK AO2 T10621120
KRCV 240310Z AUTO 24006KT 10SM CLR M05/M12 A2984 RMK AO2 T10511118
KRCV 240250Z AUTO 23004KT 10SM CLR M04/M11 A2984 RMK AO2 T10431115
KRCV 240230Z AUTO 28008KT 10SM CLR M04/M12 A2984 RMK AO2 T10401117
KRCV 240210Z AUTO 28005KT 10SM CLR M04/M12 A2984 RMK AO2 T10401119
KRCV 240150Z AUTO 28006KT 10SM CLR M04/M12 A2984 RMK AO2 T10441120
KRCV 240125Z AUTO 26004KT 10SM SCT075 SCT080 M03/M12 A2984 RMK AO2 T10291125
KRCV 240110Z AUTO 27007KT 10SM SCT060 BKN085 M02/M12 A2984 RMK AO2 T10251125
KRCV 240050Z AUTO 27007KT 10SM BKN070 OVC080 M02/M13 A2984 RMK AO2 T10181126
KRCV 240030Z AUTO 28007KT 10SM SCT070 BKN080 BKN090 M02/M13 A2984 RMK AO2 T10161126
KRCV 240010Z AUTO 27008KT 10SM CLR M01/M13 A2984 RMK AO2 T10111126
KRCV 232345Z AUTO 26013G18KT 10SM CLR 00/M13 A2984 RMK AO2 T10031127
KRCV 232330Z AUTO 26012G17KT 10SM CLR 00/M12 A2984 RMK AO2 T10011119
KRCV 232310Z AUTO 27012G17KT 10SM CLR 00/M12 A2984 RMK AO2 T10011117
KRCV 232250Z AUTO 27016G22KT 10SM CLR 00/M12 A2985 RMK AO2 T00001118
KRCV 232230Z AUTO 26016G21KT 10SM CLR 01/M12 A2985 RMK AO2 T00061124
KRCV 232210Z AUTO 25015G24KT 10SM CLR 01/M13 A2986 RMK AO2 T00061127
KRCV 232150Z AUTO 25017G27KT 10SM CLR 01/M13 A2986 RMK AO2 T00081128
KRCV 232130Z AUTO 25020G24KT 10SM CLR 01/M13 A2986 RMK AO2 T00091129
KRCV 232110Z AUTO 25013G20KT 10SM CLR 01/M13 A2986 RMK AO2 T00131130
KRCV 232050Z AUTO 24009G21KT 10SM CLR 02/M14 A2986 RMK AO2 T00191139
KRCV 232030Z AUTO 23019G24KT 10SM CLR 02/M14 A2986 RMK AO2 T00211139
KRCV 232010Z AUTO 28015G18KT 10SM CLR 01/M13 A2987 RMK AO2 T00101127
KRCV 231950Z AUTO 27011G16KT 240V300 10SM SCT070 00/M14 A2989 RMK AO2 LTG DSNT E T00031136
KRCV 231930Z AUTO 36005KT 10SM SCT065 SCT070 00/M14 A2991 RMK AO2 T00001136
KRCV 231910Z AUTO 07004KT 10SM SCT065 00/M13 A2993 RMK AO2 T00001135
KRCV 231850Z AUTO 06003KT 10SM SCT065 M01/M13 A2994 RMK AO2 T10091135
KRCV 231830Z AUTO 05006KT 10SM SCT060 M02/M14 A2995 RMK AO2 T10161137
KRCV 231810Z AUTO 03008KT 10SM SCT060 M02/M13 A2996 RMK AO2 T10201128
KRCV 231750Z AUTO 03007KT 10SM SCT060 M04/M13 A2998 RMK AO2 T10361133 11036 21150
KRCV 231730Z AUTO 04009KT 10SM BKN060 BKN070 M05/M13 A2998 RMK AO2 T10461128
KRCV 231710Z AUTO 05008KT 10SM SCT055 BKN070 M05/M12 A2998 RMK AO2 T10501122
KRCV 231650Z AUTO 07008KT 10SM BKN055 M06/M12 A2999 RMK AO2 T10571122
KRCV 231630Z AUTO 08006KT 10SM SCT060 M06/M12 A2999 RMK AO2 T10621122
KRCV 231610Z AUTO 07005KT 10SM CLR M07/M12 A3000 RMK AO2 T10681124
KRCV 231550Z AUTO 05004KT 10SM CLR M08/M12 A3001 RMK AO2 T10791122
KRCV 231530Z AUTO 10004KT 10SM CLR M09/M12 A3000 RMK AO2 T10911125
KRCV 231510Z AUTO 00000KT 10SM CLR M10/M13 A3001 RMK AO2 T11021131
KRCV 231450Z AUTO 00000KT 10SM CLR M10/M12 A3001 RMK AO2 T11021124
KRCV 231430Z AUTO 00000KT 10SM CLR M12/M14 A3000 RMK AO2 T11181139
KRCV 231410Z AUTO 00000KT 10SM CLR M12/M14 A3000 RMK AO2 T11181141
KRCV 231350Z AUTO 24003KT 10SM CLR M13/M15 A3000 RMK AO2 T11341155
KRCV 231330Z AUTO 00000KT 10SM CLR M13/M15 A2999 RMK AO2 T11271151
KRCV 231310Z AUTO 00000KT 10SM CLR M13/M15 A2999 RMK AO2 T11291149
KRCV 231250Z AUTO 00000KT 10SM CLR M14/M15 A2999 RMK AO2 T11391155
KRCV 231230Z AUTO 01003KT 10SM CLR M15/M17 A2999 RMK AO2 T11501170
KRCV 231210Z AUTO 21003KT 10SM CLR M14/M16 A2998 RMK AO2 T11381156
KRCV 231150Z AUTO 24003KT 10SM CLR M14/M16 A2998 RMK AO2 T11381158 11079 21148
KRCV 231130Z AUTO 28003KT 10SM CLR M14/M16 A2998 RMK AO2 T11411159
KRCV 231110Z AUTO 00000KT 10SM CLR M14/M16 A2998 RMK AO2 T11451165
KRCV 231045Z AUTO 25003KT 10SM CLR M14/M16 A2998 RMK AO2 T11371156
KRCV 231025Z AUTO 26004KT 10SM CLR M14/M16 A2998 RMK AO2 T11421164
KRCV 231010Z AUTO 00000KT 10SM CLR M12/M14 A2998 RMK AO2 T11201140